Pittsburgh, Pennsylvania
Traffic Map
Current Weather Conditions
Pittsburgh, Pennsylvania
Overcast
Overcast
16°
Feels Like: 16°
Wind Chill: 16° Ceiling: 9000
Heat Index: 16° Visibility: 10mi
Dew Point: 12° Wind: 5mph
Humidity: 80% Direction: 160° (SSE)
Pressure: 29.98in Gusts: 0mph
Raw Report DataKAGC 240653Z AUTO 16004KT 10SM FEW049 OVC090 16/12 A2998 RMK AO2 SLP152 T01560122
Traffic Incident Summary
Active as of:
Severity:
Category:
InformationThere was an issue retrieving the traffic information for this location. Please try a different location or try again shortly.
Advertisements